Time;durP1;ratioP1;P1;durP2;ratioP2;P2;SDS_P1;SDS_P2;PMS_P1;PMS_P2;Temp;Humidity;BMP_temperature;BMP_pressure;BME280_temperature;BME280_humidity;BME280_pressure;Samples;Min_cycle;Max_cycle;Signal;HPM_P1;HPM_P2
2023/03/01 00:02:28;;;;;;;5.25;3.50;;;1.70;90.30;;;;;;5003169;28;20032;-43
2023/03/01 00:04:53;;;;;;;4.35;3.58;;;1.70;90.40;;;;;;5003134;28;20066;-42
2023/03/01 00:07:21;;;;;;;3.85;3.28;;;1.70;90.40;;;;;;5002399;28;20034;-44
2023/03/01 00:09:47;;;;;;;7.03;4.03;;;1.70;90.40;;;;;;5002694;28;20588;-43
2023/03/01 00:12:12;;;;;;;5.07;3.97;;;1.70;90.50;;;;;;5003794;28;20033;-43
2023/03/01 00:14:38;;;;;;;4.82;4.13;;;1.70;90.50;;;;;;5002320;28;20026;-43
2023/03/01 00:17:03;;;;;;;5.82;4.18;;;1.70;90.60;;;;;;5003110;28;20852;-41
2023/03/01 00:19:29;;;;;;;4.57;3.95;;;1.80;90.60;;;;;;5002944;28;20760;-43
2023/03/01 00:21:54;;;;;;;5.43;3.85;;;1.70;90.70;;;;;;5002360;28;20116;-42
2023/03/01 00:24:20;;;;;;;5.00;3.75;;;1.70;90.70;;;;;;5003690;28;20088;-43
2023/03/01 00:26:46;;;;;;;4.97;3.97;;;1.70;90.70;;;;;;5002388;28;20018;-43
2023/03/01 00:29:12;;;;;;;5.35;4.43;;;1.70;90.80;;;;;;5003165;28;20042;-43
2023/03/01 00:31:37;;;;;;;5.72;4.35;;;1.70;90.80;;;;;;5002830;28;20061;-43
2023/03/01 00:34:04;;;;;;;6.35;4.30;;;1.70;90.90;;;;;;5002046;28;20537;-43
2023/03/01 00:36:35;;;;;;;5.10;4.15;;;1.70;90.90;;;;;;5003371;28;20034;-43
2023/03/01 00:39:04;;;;;;;6.53;3.90;;;1.60;90.90;;;;;;5002194;28;20026;-42
2023/03/01 00:41:29;;;;;;;5.43;4.40;;;1.60;91.00;;;;;;5002429;28;20030;-42
2023/03/01 00:43:55;;;;;;;6.10;4.40;;;1.60;91.10;;;;;;5002144;28;20033;-43
2023/03/01 00:46:24;;;;;;;4.53;3.78;;;1.50;91.20;;;;;;5003349;28;20097;-43
2023/03/01 00:48:50;;;;;;;4.90;4.25;;;1.50;91.30;;;;;;5001366;28;20030;-42
2023/03/01 00:51:22;;;;;;;5.25;4.20;;;1.50;91.30;;;;;;5003148;28;20018;-43
2023/03/01 00:53:51;;;;;;;5.93;4.30;;;1.40;91.30;;;;;;5000526;28;20430;-43
2023/03/01 00:56:16;;;;;;;5.57;3.92;;;1.40;91.40;;;;;;5001777;28;20073;-42
2023/03/01 00:58:42;;;;;;;5.18;4.28;;;1.40;91.50;;;;;;5002511;28;20147;-43
2023/03/01 01:01:17;;;;;;;5.82;4.30;;;1.40;91.50;;;;;;5001535;28;20381;-42
2023/03/01 01:03:47;;;;;;;5.93;4.72;;;1.40;91.60;;;;;;5001796;28;20045;-43
2023/03/01 01:06:18;;;;;;;6.53;5.82;;;1.40;91.70;;;;;;4992787;28;20017;-43
2023/03/01 01:08:44;;;;;;;6.30;5.63;;;1.40;91.90;;;;;;5001036;28;20032;-43
2023/03/01 01:11:11;;;;;;;5.97;5.00;;;1.40;92.00;;;;;;5002044;28;20026;-42
2023/03/01 01:13:38;;;;;;;7.38;4.68;;;1.40;92.00;;;;;;5002086;28;20549;-43
2023/03/01 01:16:06;;;;;;;6.63;5.60;;;1.40;92.10;;;;;;4998123;28;20564;-42
2023/03/01 01:18:32;;;;;;;7.07;5.57;;;1.30;92.20;;;;;;5002210;28;20038;-42
2023/03/01 01:21:02;;;;;;;6.72;5.57;;;1.30;92.30;;;;;;5001051;28;20046;-42
2023/03/01 01:23:34;;;;;;;8.13;5.85;;;1.20;92.30;;;;;;5001882;28;20133;-43
2023/03/01 01:26:07;;;;;;;6.55;5.85;;;1.20;92.50;;;;;;5001387;28;20030;-43
2023/03/01 01:28:33;;;;;;;7.05;5.47;;;1.10;92.60;;;;;;5001646;28;20794;-43
2023/03/01 01:30:59;;;;;;;7.07;5.53;;;1.10;92.80;;;;;;5000503;28;20026;-45
2023/03/01 01:33:25;;;;;;;7.75;5.82;;;1.00;92.80;;;;;;5001623;28;20030;-42
2023/03/01 01:35:51;;;;;;;10.57;6.55;;;1.00;93.00;;;;;;5001072;28;20053;-43
2023/03/01 01:38:16;;;;;;;8.82;6.60;;;0.90;93.20;;;;;;5001195;28;20092;-44
2023/03/01 01:40:46;;;;;;;9.95;6.50;;;0.90;93.30;;;;;;5001770;28;20729;-42
2023/03/01 01:43:26;;;;;;;7.63;6.32;;;0.90;93.50;;;;;;5001057;28;20038;-42
2023/03/01 01:46:01;;;;;;;7.07;6.07;;;0.90;93.60;;;;;;5000248;28;20068;-43
2023/03/01 01:48:40;;;;;;;7.32;5.95;;;0.80;93.60;;;;;;5001794;28;20048;-43
2023/03/01 01:51:11;;;;;;;7.78;6.53;;;0.80;93.80;;;;;;5000952;28;20811;-43
2023/03/01 01:53:44;;;;;;;7.13;6.15;;;0.80;93.90;;;;;;5001074;28;20034;-43
2023/03/01 01:56:12;;;;;;;7.35;5.80;;;0.80;93.90;;;;;;5000825;28;20078;-43
2023/03/01 01:58:39;;;;;;;8.35;6.45;;;0.80;94.00;;;;;;5000660;28;20030;-43
2023/03/01 02:01:05;;;;;;;9.07;6.60;;;0.80;94.10;;;;;;5000333;28;20038;-42
2023/03/01 02:03:37;;;;;;;7.40;6.00;;;0.80;94.20;;;;;;5001156;28;20037;-42
2023/03/01 02:06:28;;;;;;;7.75;6.07;;;0.80;94.30;;;;;;5000036;28;20037;-42
2023/03/01 02:08:57;;;;;;;8.05;5.65;;;0.80;94.40;;;;;;5001536;28;20038;-42
2023/03/01 02:11:23;;;;;;;6.47;5.50;;;0.90;94.40;;;;;;5001150;28;20124;-42
2023/03/01 02:13:50;;;;;;;6.90;6.20;;;0.90;94.50;;;;;;5000118;28;20030;-43
2023/03/01 02:16:16;;;;;;;7.85;5.32;;;0.90;94.50;;;;;;5000388;28;20040;-43
2023/03/01 02:18:45;;;;;;;8.40;5.90;;;0.90;94.60;;;;;;5000995;28;20077;-43
2023/03/01 02:21:49;;;;;;;6.68;5.75;;;0.90;94.60;;;;;;5000201;28;20104;-42
2023/03/01 02:24:45;;;;;;;7.63;5.68;;;0.90;94.70;;;;;;4932762;29;20043;-43
2023/03/01 02:27:11;;;;;;;7.00;5.63;;;0.90;94.80;;;;;;4930040;29;20150;-43
2023/03/01 02:29:36;;;;;;;6.70;4.97;;;0.80;94.70;;;;;;4979956;28;20061;-43
2023/03/01 02:32:04;;;;;;;6.07;5.43;;;0.90;94.90;;;;;;5000077;28;20022;-42
2023/03/01 02:34:34;;;;;;;5.93;4.90;;;0.90;95.00;;;;;;5000211;28;20120;-42
2023/03/01 02:37:14;;;;;;;7.43;5.75;;;0.90;95.00;;;;;;5000622;28;20029;-43
2023/03/01 02:39:46;;;;;;;6.50;5.32;;;0.90;95.00;;;;;;5000163;28;20663;-44
2023/03/01 02:42:16;;;;;;;7.35;5.32;;;0.90;95.00;;;;;;4996478;28;20022;-41
2023/03/01 02:44:42;;;;;;;6.45;5.60;;;0.90;95.00;;;;;;4992587;28;20521;-43
2023/03/01 02:47:07;;;;;;;6.70;5.22;;;0.90;95.10;;;;;;4999801;28;20116;-44
2023/03/01 02:49:35;;;;;;;6.05;5.05;;;0.90;95.30;;;;;;5000270;28;20029;-43
2023/03/01 02:52:20;;;;;;;7.05;5.13;;;0.90;95.40;;;;;;5000254;28;20026;-43
2023/03/01 02:54:52;;;;;;;5.55;4.70;;;1.00;95.30;;;;;;4999440;28;20405;-43
2023/03/01 02:57:20;;;;;;;8.27;5.18;;;1.00;95.30;;;;;;5000422;28;20037;-43
2023/03/01 02:59:53;;;;;;;6.22;5.60;;;1.00;95.40;;;;;;5000560;28;20030;-43
2023/03/01 03:02:37;;;;;;;7.68;5.85;;;1.00;95.50;;;;;;5000157;28;20042;-43
2023/03/01 03:05:11;;;;;;;7.38;5.95;;;1.00;95.50;;;;;;5000061;28;20026;-44
2023/03/01 03:07:39;;;;;;;7.78;5.10;;;0.90;95.50;;;;;;4999643;28;20037;-44
2023/03/01 03:10:09;;;;;;;6.68;5.55;;;0.90;95.60;;;;;;4998842;28;20033;-43
2023/03/01 03:12:34;;;;;;;9.50;5.75;;;0.90;95.70;;;;;;5000083;28;20558;-45
2023/03/01 03:15:00;;;;;;;7.75;5.22;;;0.90;96.00;;;;;;4999972;28;20474;-43
2023/03/01 03:17:25;;;;;;;6.95;4.93;;;0.90;95.90;;;;;;5002281;28;20114;-43
2023/03/01 03:19:51;;;;;;;7.03;4.85;;;0.90;96.00;;;;;;5003012;28;20022;-43
2023/03/01 03:22:17;;;;;;;6.40;5.35;;;0.90;96.30;;;;;;5003781;28;20461;-43
2023/03/01 03:24:42;;;;;;;5.63;4.63;;;0.90;96.10;;;;;;5004062;28;20028;-44
2023/03/01 03:27:10;;;;;;;5.53;4.57;;;0.80;96.00;;;;;;5004297;28;20753;-43
2023/03/01 03:29:36;;;;;;;7.72;4.32;;;0.90;96.10;;;;;;5003376;28;20089;-43
2023/03/01 03:32:02;;;;;;;5.07;4.40;;;0.80;96.00;;;;;;5003606;28;20026;-43
2023/03/01 03:34:28;;;;;;;5.55;4.90;;;0.80;96.20;;;;;;5003459;28;20034;-43
2023/03/01 03:36:59;;;;;;;5.82;4.35;;;0.80;96.20;;;;;;5002970;28;20487;-43
2023/03/01 03:39:26;;;;;;;6.47;5.00;;;0.80;96.20;;;;;;5004037;28;20041;-44
2023/03/01 03:41:51;;;;;;;5.07;4.43;;;0.90;96.30;;;;;;5003936;28;20061;-44
2023/03/01 03:44:17;;;;;;;9.13;5.60;;;0.80;96.40;;;;;;5003484;28;20117;-44
2023/03/01 03:46:42;;;;;;;6.60;5.45;;;0.80;96.60;;;;;;5003359;28;20489;-43
2023/03/01 03:49:08;;;;;;;7.35;5.28;;;0.80;96.60;;;;;;5003479;28;20124;-43
2023/03/01 03:51:36;;;;;;;6.30;4.80;;;0.80;96.60;;;;;;5003698;28;20028;-43
2023/03/01 03:54:02;;;;;;;4.88;4.10;;;0.90;96.60;;;;;;5003669;28;20029;-42
2023/03/01 03:56:27;;;;;;;4.80;4.28;;;0.80;96.50;;;;;;5004399;28;20030;-44
2023/03/01 03:58:53;;;;;;;5.80;4.43;;;0.80;96.60;;;;;;5002622;28;20018;-43
2023/03/01 04:01:22;;;;;;;4.72;4.07;;;0.80;96.60;;;;;;5004625;28;20029;-43
2023/03/01 04:03:47;;;;;;;4.93;3.63;;;0.80;96.70;;;;;;5003170;28;20030;-43
2023/03/01 04:06:14;;;;;;;5.95;4.18;;;0.80;96.70;;;;;;5003283;28;20026;-43
2023/03/01 04:08:40;;;;;;;6.80;4.60;;;0.80;96.70;;;;;;5003407;28;20042;-43
2023/03/01 04:11:27;;;;;;;5.28;4.35;;;0.80;96.70;;;;;;5003474;28;20202;-42
2023/03/01 04:13:55;;;;;;;5.18;4.28;;;0.80;96.70;;;;;;5002988;28;20037;-42
2023/03/01 04:16:24;;;;;;;5.22;3.97;;;0.70;96.80;;;;;;5004217;28;20037;-41
2023/03/01 04:18:50;;;;;;;6.60;4.47;;;0.80;96.90;;;;;;5002977;28;20026;-43
2023/03/01 04:21:16;;;;;;;6.38;4.63;;;0.70;96.90;;;;;;5003694;28;20393;-43
2023/03/01 04:23:41;;;;;;;4.93;4.38;;;0.70;97.00;;;;;;5003299;28;20042;-42
2023/03/01 04:26:08;;;;;;;5.38;4.28;;;0.70;97.00;;;;;;5002647;28;20030;-42
2023/03/01 04:28:40;;;;;;;5.63;4.32;;;0.70;97.00;;;;;;5002630;28;20038;-42
2023/03/01 04:31:15;;;;;;;4.15;3.75;;;0.70;97.00;;;;;;5003007;28;20057;-43
2023/03/01 04:33:51;;;;;;;6.28;4.13;;;0.70;97.00;;;;;;5002050;28;20490;-42
2023/03/01 04:36:22;;;;;;;5.20;3.95;;;0.70;97.10;;;;;;5002634;28;20878;-42
2023/03/01 04:38:48;;;;;;;6.25;4.45;;;0.70;97.30;;;;;;5002587;28;20621;-42
2023/03/01 04:41:16;;;;;;;5.38;4.13;;;0.70;97.40;;;;;;5002114;28;20025;-42
2023/03/01 04:43:41;;;;;;;8.52;4.80;;;0.70;97.30;;;;;;5002780;28;20121;-42
2023/03/01 04:46:09;;;;;;;7.05;4.65;;;0.70;97.40;;;;;;5002256;28;20025;-43
2023/03/01 04:48:37;;;;;;;5.35;4.03;;;0.80;97.40;;;;;;5001956;28;20053;-42
2023/03/01 04:51:03;;;;;;;6.75;5.05;;;0.70;97.30;;;;;;5002397;28;20014;-43
2023/03/01 04:53:29;;;;;;;5.93;4.85;;;0.70;97.80;;;;;;5002269;28;20056;-43
2023/03/01 04:55:56;;;;;;;6.05;4.90;;;0.70;97.70;;;;;;4998138;28;20045;-42
2023/03/01 04:58:26;;;;;;;7.75;5.38;;;0.70;97.90;;;;;;4993132;28;20072;-42
2023/03/01 05:00:52;;;;;;;6.60;4.97;;;0.70;97.80;;;;;;4999657;28;20021;-42
2023/03/01 05:03:18;;;;;;;6.47;4.85;;;0.70;97.80;;;;;;4991415;28;20030;-42
2023/03/01 05:05:46;;;;;;;6.72;5.13;;;0.70;97.90;;;;;;5000516;28;20052;-43
2023/03/01 05:08:20;;;;;;;5.22;4.65;;;0.70;97.90;;;;;;4990526;28;20136;-42
2023/03/01 05:10:58;;;;;;;6.05;4.50;;;0.70;97.90;;;;;;5000772;28;20033;-44
2023/03/01 05:13:23;;;;;;;6.57;5.18;;;0.70;98.00;;;;;;4990852;28;20026;-43
2023/03/01 05:15:57;;;;;;;4.68;4.03;;;0.70;98.00;;;;;;4982088;28;20113;-43
2023/03/01 05:18:27;;;;;;;5.05;4.18;;;0.70;98.00;;;;;;4990816;28;20038;-42
2023/03/01 05:21:01;;;;;;;6.38;4.57;;;0.70;98.00;;;;;;5002057;28;20103;-42
2023/03/01 05:23:30;;;;;;;6.30;4.63;;;0.60;98.00;;;;;;4994082;28;20157;-43
2023/03/01 05:25:59;;;;;;;5.75;4.90;;;0.60;98.10;;;;;;4982410;28;20030;-42
2023/03/01 05:28:25;;;;;;;5.45;4.55;;;0.60;98.20;;;;;;4994051;28;20565;-41
2023/03/01 05:30:51;;;;;;;5.57;4.60;;;0.60;98.20;;;;;;4980995;28;20054;-42
2023/03/01 05:33:21;;;;;;;6.47;4.10;;;0.60;98.20;;;;;;4994169;28;20034;-38
2023/03/01 05:35:48;;;;;;;6.80;4.80;;;0.70;98.30;;;;;;4962622;28;20070;-40
2023/03/01 05:38:14;;;;;;;6.28;4.60;;;0.60;98.30;;;;;;4989602;28;20034;-43
2023/03/01 05:40:45;;;;;;;6.03;4.20;;;0.60;98.30;;;;;;4998970;28;20061;-44
2023/03/01 05:43:12;;;;;;;4.68;3.65;;;0.60;98.40;;;;;;4992998;28;20519;-44
2023/03/01 05:45:39;;;;;;;6.15;4.25;;;0.60;98.30;;;;;;4997934;28;20366;-43
2023/03/01 05:48:05;;;;;;;5.55;3.78;;;0.60;98.40;;;;;;4995154;28;20149;-41
2023/03/01 05:50:37;;;;;;;4.88;3.92;;;0.60;98.40;;;;;;4995211;28;20080;-43
2023/03/01 05:53:10;;;;;;;7.00;4.50;;;0.60;98.50;;;;;;4997355;28;20117;-42
2023/03/01 05:55:36;;;;;;;5.38;3.92;;;0.60;98.60;;;;;;4997128;28;20088;-43
2023/03/01 05:58:07;;;;;;;4.78;3.97;;;0.60;98.60;;;;;;5001225;28;20021;-43
2023/03/01 06:00:33;;;;;;;5.35;3.97;;;0.60;98.60;;;;;;5001384;28;20021;-44
2023/03/01 06:03:00;;;;;;;4.47;4.00;;;0.60;98.60;;;;;;5001601;28;20022;-42
2023/03/01 06:05:26;;;;;;;8.18;4.18;;;0.60;98.70;;;;;;5001172;28;20049;-43
2023/03/01 06:07:52;;;;;;;8.85;4.68;;;0.60;98.70;;;;;;5000685;28;20034;-42
2023/03/01 06:10:21;;;;;;;9.38;6.32;;;0.60;98.80;;;;;;5001843;28;20127;-43
2023/03/01 06:12:46;;;;;;;6.07;4.95;;;0.60;98.90;;;;;;4999507;28;20025;-42
2023/03/01 06:15:14;;;;;;;8.32;5.00;;;0.60;98.90;;;;;;5001031;28;20044;-43
2023/03/01 06:17:42;;;;;;;6.15;4.18;;;0.60;98.90;;;;;;5000789;28;20065;-44
2023/03/01 06:20:20;;;;;;;6.22;4.38;;;0.60;98.90;;;;;;4999964;28;20091;-42
2023/03/01 06:22:46;;;;;;;14.50;6.57;;;0.60;98.80;;;;;;5001050;28;20026;-43
2023/03/01 06:25:14;;;;;;;5.60;4.20;;;0.60;98.80;;;;;;5000049;28;20037;-42
2023/03/01 06:27:40;;;;;;;6.57;4.40;;;0.50;98.90;;;;;;5000603;28;20140;-42
2023/03/01 06:30:07;;;;;;;5.30;4.25;;;0.50;98.90;;;;;;5000063;28;20590;-42
2023/03/01 06:32:33;;;;;;;5.30;4.00;;;0.50;98.90;;;;;;5000537;28;20057;-44
2023/03/01 06:34:59;;;;;;;4.90;3.90;;;0.50;99.00;;;;;;5000277;28;20109;-42
2023/03/01 06:37:25;;;;;;;4.97;3.72;;;0.50;99.10;;;;;;5001165;28;20092;-42
2023/03/01 06:39:50;;;;;;;5.65;4.15;;;0.50;99.10;;;;;;4999708;28;20025;-42
2023/03/01 06:42:16;;;;;;;6.57;4.63;;;0.40;99.10;;;;;;5000935;28;20045;-41
2023/03/01 06:44:42;;;;;;;5.57;4.22;;;0.50;99.50;;;;;;4999763;28;20025;-42
2023/03/01 06:47:07;;;;;;;6.25;4.35;;;0.50;99.20;;;;;;5000020;28;20623;-42
2023/03/01 06:49:33;;;;;;;6.72;4.82;;;0.50;99.10;;;;;;4999117;28;20527;-41
2023/03/01 06:51:59;;;;;;;5.72;4.18;;;0.50;99.20;;;;;;4997839;28;20034;-42
2023/03/01 06:54:24;;;;;;;5.93;4.53;;;0.50;99.20;;;;;;4997838;28;21768;-43
2023/03/01 06:56:50;;;;;;;5.65;4.10;;;0.50;99.20;;;;;;4998703;28;20091;-42
2023/03/01 06:59:17;;;;;;;7.28;5.25;;;0.50;99.20;;;;;;5000180;28;20022;-43
2023/03/01 07:01:43;;;;;;;8.63;5.25;;;0.50;99.30;;;;;;4998624;28;20064;-42
2023/03/01 07:04:09;;;;;;;7.60;5.32;;;0.50;99.30;;;;;;4999394;28;20500;-43
2023/03/01 07:06:34;;;;;;;6.38;4.60;;;0.50;99.40;;;;;;5000024;28;20081;-44
2023/03/01 07:09:00;;;;;;;6.07;4.63;;;0.50;99.40;;;;;;4998966;28;20818;-42
2023/03/01 07:11:26;;;;;;;5.32;4.13;;;0.50;99.50;;;;;;4999882;28;20061;-43
2023/03/01 07:13:51;;;;;;;6.90;4.30;;;0.50;99.40;;;;;;4999869;28;20100;-43
2023/03/01 07:16:17;;;;;;;6.47;4.38;;;0.50;99.50;;;;;;4999198;28;20046;-42
2023/03/01 07:18:43;;;;;;;6.25;4.10;;;0.50;99.50;;;;;;4999909;28;20697;-42
2023/03/01 07:21:12;;;;;;;9.25;5.38;;;0.50;99.50;;;;;;4998814;28;20026;-44
2023/03/01 07:23:37;;;;;;;8.43;5.15;;;0.40;99.60;;;;;;4999017;28;20908;-43
2023/03/01 07:26:03;;;;;;;10.75;5.05;;;0.50;99.60;;;;;;4997847;28;20018;-42
2023/03/01 07:28:30;;;;;;;8.13;5.05;;;0.50;99.70;;;;;;4998505;28;20084;-44
2023/03/01 07:31:01;;;;;;;8.15;5.13;;;0.60;99.70;;;;;;4998466;28;20072;-43
2023/03/01 07:33:26;;;;;;;8.60;5.78;;;0.60;99.70;;;;;;4989076;28;20045;-42
2023/03/01 07:35:57;;;;;;;10.32;6.50;;;0.70;99.70;;;;;;4997844;28;20022;-43
2023/03/01 07:38:23;;;;;;;11.40;7.50;;;0.90;99.70;;;;;;4989463;28;20056;-42
2023/03/01 07:40:51;;;;;;;8.85;6.35;;;1.00;99.60;;;;;;4998980;28;20030;-43
2023/03/01 07:43:16;;;;;;;11.70;7.57;;;1.10;99.50;;;;;;4999372;28;20045;-43
2023/03/01 07:45:42;;;;;;;8.60;6.40;;;1.10;99.50;;;;;;5000118;28;20113;-43
2023/03/01 07:48:08;;;;;;;7.97;5.95;;;1.20;99.40;;;;;;4999311;28;20054;-43
2023/03/01 07:50:33;;;;;;;9.18;6.22;;;1.30;99.40;;;;;;4999123;28;20129;-44
2023/03/01 07:52:59;;;;;;;7.55;5.72;;;1.40;99.40;;;;;;4998054;28;20042;-42
2023/03/01 07:55:25;;;;;;;7.78;5.13;;;1.40;99.30;;;;;;4999986;28;20049;-42
2023/03/01 07:57:50;;;;;;;6.10;4.97;;;1.40;99.30;;;;;;4998928;28;20752;-43
2023/03/01 08:00:16;;;;;;;5.88;4.90;;;1.50;99.30;;;;;;5000177;28;20030;-43
2023/03/01 08:02:42;;;;;;;6.80;5.35;;;1.50;99.30;;;;;;5000936;28;20037;-43
2023/03/01 08:05:09;;;;;;;6.47;4.80;;;1.60;99.30;;;;;;5001918;28;20025;-43
2023/03/01 08:07:35;;;;;;;7.07;5.07;;;1.60;99.20;;;;;;5003689;28;20588;-44
2023/03/01 08:10:01;;;;;;;7.90;5.30;;;1.60;99.20;;;;;;5002905;28;20045;-42
2023/03/01 08:12:27;;;;;;;7.65;5.53;;;1.70;99.20;;;;;;5003859;28;20029;-43
2023/03/01 08:14:53;;;;;;;6.75;4.90;;;1.70;99.20;;;;;;5002963;28;20061;-42
2023/03/01 08:17:19;;;;;;;8.82;5.72;;;1.80;99.20;;;;;;5003624;28;20025;-43
2023/03/01 08:19:44;;;;;;;6.97;4.85;;;1.80;99.10;;;;;;5002359;28;20061;-42
2023/03/01 08:22:10;;;;;;;9.13;5.05;;;1.90;99.10;;;;;;5003078;28;20026;-42
2023/03/01 08:24:36;;;;;;;5.72;4.30;;;1.90;99.10;;;;;;5003919;28;20049;-44
2023/03/01 08:27:02;;;;;;;7.00;5.35;;;1.90;99.10;;;;;;5002978;28;20022;-42
2023/03/01 08:29:30;;;;;;;7.82;5.75;;;2.00;99.10;;;;;;5002509;28;20038;-43
2023/03/01 08:31:56;;;;;;;8.07;5.40;;;2.10;99.10;;;;;;5002076;28;20049;-42
2023/03/01 08:34:21;;;;;;;6.45;5.40;;;2.10;99.10;;;;;;5003574;28;20117;-42
2023/03/01 08:36:47;;;;;;;6.80;5.50;;;2.20;99.10;;;;;;5002616;28;20028;-43
2023/03/01 08:39:15;;;;;;;8.48;5.72;;;2.20;99.00;;;;;;5002275;28;20132;-43
2023/03/01 08:41:41;;;;;;;7.20;5.50;;;2.30;99.00;;;;;;5002974;28;20084;-42
2023/03/01 08:44:07;;;;;;;7.28;5.22;;;2.30;98.90;;;;;;5002318;28;20163;-43
2023/03/01 08:46:38;;;;;;;7.22;5.60;;;2.40;98.90;;;;;;5001729;28;20037;-43
2023/03/01 08:49:05;;;;;;;7.47;5.97;;;2.50;98.90;;;;;;5002386;28;20146;-44
2023/03/01 08:51:32;;;;;;;8.25;6.05;;;2.60;98.80;;;;;;5003242;28;20055;-43
2023/03/01 08:53:58;;;;;;;11.10;5.95;;;2.60;98.70;;;;;;5001248;28;20488;-43
2023/03/01 08:56:23;;;;;;;10.15;6.13;;;2.70;98.60;;;;;;5002732;28;20025;-42
2023/03/01 08:58:49;;;;;;;8.73;5.63;;;2.80;98.40;;;;;;5002440;28;20022;-43
2023/03/01 09:01:17;;;;;;;8.07;5.18;;;2.90;98.20;;;;;;5002589;28;20117;-42
2023/03/01 09:03:44;;;;;;;7.05;5.35;;;3.00;98.00;;;;;;5002486;28;20041;-43
2023/03/01 09:06:18;;;;;;;8.25;5.40;;;3.00;97.70;;;;;;5002849;28;20030;-43
2023/03/01 09:08:51;;;;;;;6.65;5.28;;;3.10;97.50;;;;;;5001495;28;20045;-44
2023/03/01 09:11:20;;;;;;;7.57;5.07;;;3.20;97.30;;;;;;4998979;28;20037;-42
2023/03/01 09:13:47;;;;;;;7.32;4.95;;;3.30;97.00;;;;;;5001905;28;20120;-43
2023/03/01 09:16:16;;;;;;;8.45;5.15;;;3.30;96.80;;;;;;5001251;28;20085;-42
2023/03/01 09:18:42;;;;;;;6.97;5.20;;;3.40;96.70;;;;;;5002350;28;20497;-44
2023/03/01 09:21:15;;;;;;;6.05;4.55;;;3.40;96.20;;;;;;5001283;28;20177;-43
2023/03/01 09:23:50;;;;;;;6.75;4.95;;;3.50;96.00;;;;;;5001464;28;20044;-43
2023/03/01 09:26:23;;;;;;;9.10;6.00;;;3.50;95.90;;;;;;5000544;28;20549;-43
2023/03/01 09:28:50;;;;;;;5.18;4.28;;;3.60;95.70;;;;;;5000007;28;20033;-42
2023/03/01 09:31:17;;;;;;;8.10;4.60;;;3.60;95.70;;;;;;5001463;28;20159;-42
2023/03/01 09:33:47;;;;;;;5.28;4.22;;;3.70;95.50;;;;;;5001914;28;20093;-42
2023/03/01 09:36:18;;;;;;;5.82;4.40;;;3.70;95.30;;;;;;5000847;28;20022;-43
2023/03/01 09:38:45;;;;;;;5.68;4.70;;;3.70;95.20;;;;;;5001013;28;20045;-43
2023/03/01 09:41:17;;;;;;;7.85;5.30;;;3.80;95.00;;;;;;5001512;28;20489;-42
2023/03/01 09:43:46;;;;;;;7.82;4.88;;;3.90;94.70;;;;;;5000965;28;20045;-42
2023/03/01 09:46:16;;;;;;;6.20;4.75;;;3.90;94.40;;;;;;5001940;28;20096;-43
2023/03/01 09:48:48;;;;;;;6.65;5.38;;;3.90;94.50;;;;;;5001943;28;20038;-43
2023/03/01 09:51:24;;;;;;;8.57;6.32;;;4.00;94.60;;;;;;5001341;28;20029;-42
2023/03/01 09:53:50;;;;;;;7.03;5.85;;;4.00;94.60;;;;;;5000909;28;20045;-42
2023/03/01 09:56:50;;;;;;;10.27;7.30;;;4.00;94.40;;;;;;5001444;28;20684;-43
2023/03/01 09:59:27;;;;;;;10.40;6.57;;;4.10;94.10;;;;;;5000905;28;20077;-43
2023/03/01 10:02:03;;;;;;;8.48;6.93;;;4.10;94.00;;;;;;5001293;28;20116;-43
2023/03/01 10:04:54;;;;;;;9.50;8.10;;;4.10;94.00;;;;;;5001130;28;20460;-43
2023/03/01 10:07:37;;;;;;;13.30;9.85;;;4.20;93.50;;;;;;5001329;28;20485;-42
2023/03/01 10:10:07;;;;;;;11.18;8.68;;;4.20;92.60;;;;;;4981832;28;20069;-43
2023/03/01 10:12:40;;;;;;;12.80;8.63;;;4.20;92.60;;;;;;4995969;28;20030;-43
2023/03/01 10:15:20;;;;;;;10.20;8.25;;;4.20;92.40;;;;;;4981334;28;20041;-41
2023/03/01 10:17:58;;;;;;;9.45;7.82;;;4.20;92.50;;;;;;4996010;28;20029;-43
2023/03/01 10:20:29;;;;;;;10.43;7.50;;;4.20;92.40;;;;;;4982021;28;20019;-42
2023/03/01 10:22:55;;;;;;;11.23;8.45;;;4.30;92.60;;;;;;4995811;28;20034;-42
2023/03/01 10:25:53;;;;;;;9.35;7.10;;;4.30;92.60;;;;;;5000234;28;20025;-43
2023/03/01 10:28:35;;;;;;;8.48;6.53;;;4.30;92.60;;;;;;5000426;28;20046;-43
2023/03/01 10:31:00;;;;;;;9.07;6.53;;;4.40;92.70;;;;;;5001101;28;20342;-42
2023/03/01 10:33:35;;;;;;;8.10;6.32;;;4.50;92.80;;;;;;5001041;28;20484;-42
2023/03/01 10:36:04;;;;;;;7.65;5.70;;;4.50;92.80;;;;;;5000913;28;20817;-44
2023/03/01 10:38:46;;;;;;;7.85;5.15;;;4.60;92.80;;;;;;5000704;28;20144;-42
2023/03/01 10:41:11;;;;;;;7.75;4.82;;;4.60;92.80;;;;;;4981312;28;20100;-44
2023/03/01 10:43:43;;;;;;;7.43;5.45;;;4.70;92.80;;;;;;4996221;28;20651;-43
2023/03/01 10:46:33;;;;;;;6.03;5.43;;;4.70;92.80;;;;;;4980583;28;20034;-43
2023/03/01 10:49:20;;;;;;;7.30;5.70;;;4.80;92.60;;;;;;4997721;28;20085;-43
2023/03/01 10:51:51;;;;;;;9.18;6.63;;;4.80;92.60;;;;;;5000350;28;20469;-42
2023/03/01 10:54:21;;;;;;;8.90;6.78;;;4.80;92.50;;;;;;4997830;28;20045;-42
2023/03/01 10:56:53;;;;;;;9.07;6.47;;;4.90;92.60;;;;;;4980691;28;20037;-42
2023/03/01 10:59:25;;;;;;;8.63;6.25;;;4.90;92.40;;;;;;4992686;28;20034;-43
2023/03/01 11:02:02;;;;;;;7.22;5.20;;;4.90;92.20;;;;;;4980530;28;20028;-42
2023/03/01 11:04:28;;;;;;;7.72;5.43;;;4.90;92.30;;;;;;4993264;28;20034;-44
2023/03/01 11:07:02;;;;;;;6.45;5.05;;;5.00;92.20;;;;;;4980432;28;20033;-43
2023/03/01 11:09:37;;;;;;;6.70;4.85;;;5.00;92.30;;;;;;4992611;28;20453;-42
2023/03/01 11:12:04;;;;;;;6.50;5.40;;;5.10;92.30;;;;;;4961231;28;20762;-42
2023/03/01 11:14:40;;;;;;;7.60;5.65;;;5.10;92.30;;;;;;4985080;28;20851;-42
2023/03/01 11:17:12;;;;;;;7.32;5.10;;;5.10;92.00;;;;;;4980457;28;20145;-42
2023/03/01 11:19:38;;;;;;;6.85;4.85;;;5.20;91.70;;;;;;4991000;28;20026;-43
2023/03/01 11:22:03;;;;;;;7.78;5.55;;;5.20;91.50;;;;;;4982278;28;20048;-42
2023/03/01 11:24:42;;;;;;;7.30;5.10;;;5.20;91.20;;;;;;4987770;28;20026;-43
2023/03/01 11:27:27;;;;;;;6.47;4.85;;;5.20;90.90;;;;;;4983368;28;20034;-43
2023/03/01 11:30:14;;;;;;;6.20;4.60;;;5.30;90.80;;;;;;4988022;28;20034;-42
2023/03/01 11:32:45;;;;;;;5.47;4.63;;;5.30;90.90;;;;;;4980413;28;20042;-41
2023/03/01 11:35:23;;;;;;;8.35;5.28;;;5.30;90.70;;;;;;4989659;28;20033;-43
2023/03/01 11:37:59;;;;;;;6.93;5.90;;;5.40;90.50;;;;;;4982358;28;20042;-44
2023/03/01 11:40:31;;;;;;;6.22;5.00;;;5.40;90.50;;;;;;4994827;28;20036;-43
2023/03/01 11:43:09;;;;;;;5.87;5.13;;;5.50;90.50;;;;;;4984030;28;20034;-42
2023/03/01 11:45:50;;;;;;;7.00;4.80;;;5.50;90.40;;;;;;4994607;28;20064;-41
2023/03/01 11:48:43;;;;;;;7.00;5.20;;;5.50;90.20;;;;;;4964569;28;20045;-42
2023/03/01 11:51:28;;;;;;;8.38;6.18;;;5.60;90.20;;;;;;4994214;28;20477;-43
2023/03/01 11:53:57;;;;;;;9.82;6.68;;;5.60;90.00;;;;;;4983711;28;20038;-43
2023/03/01 11:56:38;;;;;;;7.95;5.78;;;5.60;89.10;;;;;;5002457;28;20219;-42
2023/03/01 11:59:42;;;;;;;7.65;5.35;;;5.70;88.00;;;;;;5003104;28;20716;-41
2023/03/01 12:02:50;;;;;;;5.53;4.65;;;5.70;87.60;;;;;;4957574;28;20149;-43
2023/03/01 12:05:25;;;;;;;5.80;4.55;;;5.80;87.70;;;;;;5003548;28;20030;-42
2023/03/01 12:08:15;;;;;;;6.22;4.60;;;5.80;87.80;;;;;;5002711;28;20103;-42
2023/03/01 12:10:52;;;;;;;8.65;6.40;;;5.90;87.90;;;;;;5002454;28;20037;-43
2023/03/01 12:13:57;;;;;;;6.10;5.38;;;6.00;86.80;;;;;;5003665;28;20469;-42
2023/03/01 12:16:29;;;;;;;7.57;6.03;;;6.00;86.50;;;;;;5003205;28;20037;-42
2023/03/01 12:19:33;;;;;;;7.53;5.75;;;6.00;85.60;;;;;;5001680;28;20057;-44
2023/03/01 12:22:25;;;;;;;7.15;5.72;;;6.00;85.30;;;;;;5001520;28;20923;-41
2023/03/01 12:25:20;;;;;;;6.93;5.13;;;6.00;84.10;;;;;;4983267;28;20022;-34
2023/03/01 12:28:13;;;;;;;7.43;4.90;;;6.00;84.30;;;;;;5002745;28;20033;-32
2023/03/01 12:31:06;;;;;;;7.25;5.15;;;6.00;84.70;;;;;;5002422;28;20093;-44
2023/03/01 12:33:56;;;;;;;6.90;5.40;;;6.00;84.40;;;;;;4993851;28;20036;-43
2023/03/01 12:36:50;;;;;;;7.60;5.43;;;6.10;83.80;;;;;;5003346;28;20037;-44
2023/03/01 12:39:49;;;;;;;8.43;5.78;;;6.10;83.50;;;;;;5003238;28;20026;-43
2023/03/01 12:42:47;;;;;;;6.55;5.35;;;6.10;83.00;;;;;;4976987;28;20034;-43
2023/03/01 12:45:23;;;;;;;7.78;6.07;;;6.20;82.50;;;;;;4983611;28;20038;-43
2023/03/01 12:47:55;;;;;;;7.95;5.65;;;6.20;82.50;;;;;;4999035;28;20466;-44
2023/03/01 12:50:24;;;;;;;7.07;5.30;;;6.20;82.30;;;;;;4983359;28;20033;-44
2023/03/01 12:52:49;;;;;;;6.80;5.05;;;6.30;82.30;;;;;;4996714;28;20503;-42
2023/03/01 12:55:37;;;;;;;7.20;5.20;;;6.30;81.50;;;;;;5002606;28;20049;-44
2023/03/01 12:58:15;;;;;;;7.95;5.30;;;6.40;81.80;;;;;;5002993;28;20148;-43
2023/03/01 13:00:45;;;;;;;8.13;5.20;;;6.40;81.60;;;;;;5002326;28;20041;-43
2023/03/01 13:03:26;;;;;;;6.07;5.07;;;6.40;81.10;;;;;;5002686;28;20033;-43
2023/03/01 13:06:17;;;;;;;5.78;4.95;;;6.50;81.30;;;;;;4983104;28;20034;-42
2023/03/01 13:08:56;;;;;;;7.18;5.82;;;6.50;81.50;;;;;;5000390;28;20076;-43
2023/03/01 13:11:24;;;;;;;7.50;4.70;;;6.60;81.00;;;;;;5002874;28;20029;-43
2023/03/01 13:13:51;;;;;;;6.90;5.25;;;6.60;80.90;;;;;;5001656;28;20057;-44
2023/03/01 13:16:38;;;;;;;6.20;4.80;;;6.60;81.10;;;;;;5002639;28;20029;-43